sensor_id;sensor_type;location;lat;lon;timestamp;temperature;humidity
19385;DHT22;9828;54.122;17.974;2022-08-20T00:02:25;25.10;1.00
19385;DHT22;9828;54.122;17.974;2022-08-20T00:07:47;24.90;1.00
19385;DHT22;9828;54.122;17.974;2022-08-20T00:13:10;24.70;99.90
19385;DHT22;9828;54.122;17.974;2022-08-20T00:18:33;24.50;99.90
19385;DHT22;9828;54.122;17.974;2022-08-20T00:23:58;24.30;99.90
19385;DHT22;9828;54.122;17.974;2022-08-20T00:29:20;23.90;99.90
19385;DHT22;9828;54.122;17.974;2022-08-20T00:34:41;23.70;99.90
19385;DHT22;9828;54.122;17.974;2022-08-20T00:40:05;23.60;99.90
19385;DHT22;9828;54.122;17.974;2022-08-20T00:45:31;23.50;99.90
19385;DHT22;9828;54.122;17.974;2022-08-20T00:50:56;23.50;99.90
19385;DHT22;9828;54.122;17.974;2022-08-20T00:56:18;23.40;99.90
19385;DHT22;9828;54.122;17.974;2022-08-20T01:01:41;23.50;99.90
19385;DHT22;9828;54.122;17.974;2022-08-20T01:07:05;23.50;99.90
19385;DHT22;9828;54.122;17.974;2022-08-20T01:12:28;23.50;99.90
19385;DHT22;9828;54.122;17.974;2022-08-20T01:17:52;23.50;99.90
19385;DHT22;9828;54.122;17.974;2022-08-20T01:34:16;23.40;99.90
19385;DHT22;9828;54.122;17.974;2022-08-20T01:39:38;23.30;99.90
19385;DHT22;9828;54.122;17.974;2022-08-20T01:45:00;23.20;99.90
19385;DHT22;9828;54.122;17.974;2022-08-20T01:50:25;23.20;99.90
19385;DHT22;9828;54.122;17.974;2022-08-20T01:55:47;23.10;99.90
19385;DHT22;9828;54.122;17.974;2022-08-20T02:01:19;23.10;99.90
19385;DHT22;9828;54.122;17.974;2022-08-20T02:06:44;23.00;99.90
19385;DHT22;9828;54.122;17.974;2022-08-20T02:12:08;22.90;99.90
19385;DHT22;9828;54.122;17.974;2022-08-20T02:17:30;22.80;99.90
19385;DHT22;9828;54.122;17.974;2022-08-20T02:22:54;22.90;99.90
19385;DHT22;9828;54.122;17.974;2022-08-20T02:28:17;22.90;99.90
19385;DHT22;9828;54.122;17.974;2022-08-20T02:33:39;22.90;99.90
19385;DHT22;9828;54.122;17.974;2022-08-20T02:39:03;23.00;99.90
19385;DHT22;9828;54.122;17.974;2022-08-20T02:44:25;23.00;99.90
19385;DHT22;9828;54.122;17.974;2022-08-20T02:49:46;22.90;99.90
19385;DHT22;9828;54.122;17.974;2022-08-20T02:55:09;22.80;99.90
19385;DHT22;9828;54.122;17.974;2022-08-20T03:00:31;22.80;99.90
19385;DHT22;9828;54.122;17.974;2022-08-20T03:05:55;22.80;99.90
19385;DHT22;9828;54.122;17.974;2022-08-20T03:11:17;22.90;99.90
19385;DHT22;9828;54.122;17.974;2022-08-20T03:16:39;22.80;99.90
19385;DHT22;9828;54.122;17.974;2022-08-20T03:22:00;22.80;99.90
19385;DHT22;9828;54.122;17.974;2022-08-20T03:27:22;22.70;99.90
19385;DHT22;9828;54.122;17.974;2022-08-20T03:32:44;22.70;99.90
19385;DHT22;9828;54.122;17.974;2022-08-20T03:38:08;22.70;99.90
19385;DHT22;9828;54.122;17.974;2022-08-20T03:43:30;22.60;99.90
19385;DHT22;9828;54.122;17.974;2022-08-20T03:48:52;22.70;99.90
19385;DHT22;9828;54.122;17.974;2022-08-20T03:54:14;22.70;99.90
19385;DHT22;9828;54.122;17.974;2022-08-20T03:59:35;22.70;99.90
19385;DHT22;9828;54.122;17.974;2022-08-20T04:04:56;22.70;99.90
19385;DHT22;9828;54.122;17.974;2022-08-20T04:10:18;22.70;99.90
19385;DHT22;9828;54.122;17.974;2022-08-20T04:15:40;22.80;99.90
19385;DHT22;9828;54.122;17.974;2022-08-20T04:21:02;22.70;99.90
19385;DHT22;9828;54.122;17.974;2022-08-20T04:26:24;22.80;99.90
19385;DHT22;9828;54.122;17.974;2022-08-20T04:31:47;22.80;99.90
19385;DHT22;9828;54.122;17.974;2022-08-20T04:37:08;22.70;99.90
19385;DHT22;9828;54.122;17.974;2022-08-20T04:42:31;22.70;99.90
19385;DHT22;9828;54.122;17.974;2022-08-20T04:47:53;22.70;99.90
19385;DHT22;9828;54.122;17.974;2022-08-20T04:53:17;22.70;99.90
19385;DHT22;9828;54.122;17.974;2022-08-20T04:58:40;22.70;99.90
19385;DHT22;9828;54.122;17.974;2022-08-20T05:04:03;22.80;99.90
19385;DHT22;9828;54.122;17.974;2022-08-20T05:09:25;22.90;99.90
19385;DHT22;9828;54.122;17.974;2022-08-20T05:14:46;22.90;99.90
19385;DHT22;9828;54.122;17.974;2022-08-20T05:20:12;23.00;99.90
19385;DHT22;9828;54.122;17.974;2022-08-20T05:25:34;23.10;99.90
19385;DHT22;9828;54.122;17.974;2022-08-20T05:30:55;23.10;99.90
19385;DHT22;9828;54.122;17.974;2022-08-20T05:36:17;23.10;99.90
19385;DHT22;9828;54.122;17.974;2022-08-20T05:41:38;23.20;99.90
19385;DHT22;9828;54.122;17.974;2022-08-20T05:47:00;23.20;99.90
19385;DHT22;9828;54.122;17.974;2022-08-20T05:52:22;23.20;99.90
19385;DHT22;9828;54.122;17.974;2022-08-20T05:57:44;23.20;99.90
19385;DHT22;9828;54.122;17.974;2022-08-20T06:03:06;23.30;99.90
19385;DHT22;9828;54.122;17.974;2022-08-20T06:08:46;23.40;99.90
19385;DHT22;9828;54.122;17.974;2022-08-20T06:14:07;23.60;99.90
19385;DHT22;9828;54.122;17.974;2022-08-20T06:19:29;23.70;99.90
19385;DHT22;9828;54.122;17.974;2022-08-20T06:24:50;23.90;99.90
19385;DHT22;9828;54.122;17.974;2022-08-20T06:30:13;24.00;99.90
19385;DHT22;9828;54.122;17.974;2022-08-20T06:35:35;24.00;99.90
19385;DHT22;9828;54.122;17.974;2022-08-20T06:40:58;24.00;99.90
19385;DHT22;9828;54.122;17.974;2022-08-20T06:46:19;24.00;99.90
19385;DHT22;9828;54.122;17.974;2022-08-20T06:51:43;23.90;99.90
19385;DHT22;9828;54.122;17.974;2022-08-20T06:57:05;23.90;99.90
19385;DHT22;9828;54.122;17.974;2022-08-20T07:02:26;24.00;99.90
19385;DHT22;9828;54.122;17.974;2022-08-20T07:07:48;24.00;99.90
19385;DHT22;9828;54.122;17.974;2022-08-20T07:13:11;24.20;99.90
19385;DHT22;9828;54.122;17.974;2022-08-20T07:18:33;24.20;99.90
19385;DHT22;9828;54.122;17.974;2022-08-20T07:23:56;24.60;99.90
19385;DHT22;9828;54.122;17.974;2022-08-20T07:29:18;24.90;99.90
19385;DHT22;9828;54.122;17.974;2022-08-20T07:34:40;25.20;99.90
19385;DHT22;9828;54.122;17.974;2022-08-20T07:40:02;25.60;99.90
19385;DHT22;9828;54.122;17.974;2022-08-20T07:45:24;25.90;99.90
19385;DHT22;9828;54.122;17.974;2022-08-20T07:50:45;25.80;99.90
19385;DHT22;9828;54.122;17.974;2022-08-20T07:56:10;25.90;99.90
19385;DHT22;9828;54.122;17.974;2022-08-20T08:01:32;25.70;99.90
19385;DHT22;9828;54.122;17.974;2022-08-20T08:06:54;25.40;99.90
19385;DHT22;9828;54.122;17.974;2022-08-20T08:12:20;25.30;99.90
19385;DHT22;9828;54.122;17.974;2022-08-20T08:17:44;25.30;99.90
19385;DHT22;9828;54.122;17.974;2022-08-20T08:23:07;25.30;99.90
19385;DHT22;9828;54.122;17.974;2022-08-20T08:28:32;25.30;99.90
19385;DHT22;9828;54.122;17.974;2022-08-20T08:33:54;25.30;99.90
19385;DHT22;9828;54.122;17.974;2022-08-20T08:39:15;25.20;99.90
19385;DHT22;9828;54.122;17.974;2022-08-20T08:44:40;25.10;99.90
19385;DHT22;9828;54.122;17.974;2022-08-20T08:50:03;25.30;99.90
19385;DHT22;9828;54.122;17.974;2022-08-20T08:55:27;25.40;99.90
19385;DHT22;9828;54.122;17.974;2022-08-20T09:00:49;25.30;99.90
19385;DHT22;9828;54.122;17.974;2022-08-20T09:06:14;25.20;99.90
19385;DHT22;9828;54.122;17.974;2022-08-20T09:11:48;25.00;99.90
19385;DHT22;9828;54.122;17.974;2022-08-20T09:17:10;24.90;99.90
19385;DHT22;9828;54.122;17.974;2022-08-20T09:22:31;24.80;99.90
19385;DHT22;9828;54.122;17.974;2022-08-20T09:27:53;24.90;99.90
19385;DHT22;9828;54.122;17.974;2022-08-20T09:33:15;24.80;99.90
19385;DHT22;9828;54.122;17.974;2022-08-20T09:38:36;24.80;99.90
19385;DHT22;9828;54.122;17.974;2022-08-20T09:43:58;25.00;99.90
19385;DHT22;9828;54.122;17.974;2022-08-20T09:49:19;25.20;99.90
19385;DHT22;9828;54.122;17.974;2022-08-20T09:54:40;25.30;99.90
19385;DHT22;9828;54.122;17.974;2022-08-20T10:00:05;25.40;99.90
19385;DHT22;9828;54.122;17.974;2022-08-20T10:05:33;25.40;99.90
19385;DHT22;9828;54.122;17.974;2022-08-20T10:10:55;25.30;99.90
19385;DHT22;9828;54.122;17.974;2022-08-20T10:16:16;25.10;99.90
19385;DHT22;9828;54.122;17.974;2022-08-20T10:21:38;25.00;99.90
19385;DHT22;9828;54.122;17.974;2022-08-20T10:27:00;25.20;99.90
19385;DHT22;9828;54.122;17.974;2022-08-20T10:32:21;25.60;99.90
19385;DHT22;9828;54.122;17.974;2022-08-20T10:37:43;25.90;99.90
19385;DHT22;9828;54.122;17.974;2022-08-20T10:43:05;25.90;99.90
19385;DHT22;9828;54.122;17.974;2022-08-20T10:48:27;25.80;99.90
19385;DHT22;9828;54.122;17.974;2022-08-20T10:53:49;25.50;99.90
19385;DHT22;9828;54.122;17.974;2022-08-20T10:59:11;25.30;99.90
19385;DHT22;9828;54.122;17.974;2022-08-20T11:04:32;25.00;99.90
19385;DHT22;9828;54.122;17.974;2022-08-20T11:09:54;25.00;99.90
19385;DHT22;9828;54.122;17.974;2022-08-20T11:15:16;25.00;99.90
19385;DHT22;9828;54.122;17.974;2022-08-20T11:20:37;25.00;99.90
19385;DHT22;9828;54.122;17.974;2022-08-20T11:25:59;25.00;99.90
19385;DHT22;9828;54.122;17.974;2022-08-20T11:31:20;25.00;99.90
19385;DHT22;9828;54.122;17.974;2022-08-20T11:36:42;25.00;99.90
19385;DHT22;9828;54.122;17.974;2022-08-20T11:42:04;25.00;99.90
19385;DHT22;9828;54.122;17.974;2022-08-20T11:47:27;25.00;99.90
19385;DHT22;9828;54.122;17.974;2022-08-20T11:52:49;25.20;99.90
19385;DHT22;9828;54.122;17.974;2022-08-20T11:58:10;25.10;99.90
19385;DHT22;9828;54.122;17.974;2022-08-20T12:03:32;25.10;99.90
19385;DHT22;9828;54.122;17.974;2022-08-20T12:08:53;25.20;99.90
19385;DHT22;9828;54.122;17.974;2022-08-20T12:14:15;25.20;99.90
19385;DHT22;9828;54.122;17.974;2022-08-20T12:19:40;25.30;99.90
19385;DHT22;9828;54.122;17.974;2022-08-20T12:25:03;25.30;99.90
19385;DHT22;9828;54.122;17.974;2022-08-20T12:30:25;25.30;99.90
19385;DHT22;9828;54.122;17.974;2022-08-20T12:35:46;25.30;99.90
19385;DHT22;9828;54.122;17.974;2022-08-20T12:41:07;25.30;99.90
19385;DHT22;9828;54.122;17.974;2022-08-20T12:46:28;25.30;99.90
19385;DHT22;9828;54.122;17.974;2022-08-20T12:51:50;25.20;99.90
19385;DHT22;9828;54.122;17.974;2022-08-20T13:02:42;25.10;99.90
19385;DHT22;9828;54.122;17.974;2022-08-20T13:08:08;25.20;99.90
19385;DHT22;9828;54.122;17.974;2022-08-20T13:13:29;25.30;99.90
19385;DHT22;9828;54.122;17.974;2022-08-20T13:18:50;25.30;99.90
19385;DHT22;9828;54.122;17.974;2022-08-20T13:24:12;25.40;99.90
19385;DHT22;9828;54.122;17.974;2022-08-20T13:29:34;25.50;99.90
19385;DHT22;9828;54.122;17.974;2022-08-20T13:34:55;25.60;99.90
19385;DHT22;9828;54.122;17.974;2022-08-20T13:40:17;25.80;99.90
19385;DHT22;9828;54.122;17.974;2022-08-20T13:45:39;25.90;99.90
19385;DHT22;9828;54.122;17.974;2022-08-20T13:51:01;25.90;99.90
19385;DHT22;9828;54.122;17.974;2022-08-20T13:56:22;26.00;99.90
19385;DHT22;9828;54.122;17.974;2022-08-20T14:01:44;26.10;99.90
19385;DHT22;9828;54.122;17.974;2022-08-20T14:07:14;26.30;99.90
19385;DHT22;9828;54.122;17.974;2022-08-20T14:12:35;26.30;99.90
19385;DHT22;9828;54.122;17.974;2022-08-20T14:17:57;26.20;99.90
19385;DHT22;9828;54.122;17.974;2022-08-20T14:23:19;26.10;99.90
19385;DHT22;9828;54.122;17.974;2022-08-20T14:28:41;26.00;99.90
19385;DHT22;9828;54.122;17.974;2022-08-20T14:34:02;25.90;99.90
19385;DHT22;9828;54.122;17.974;2022-08-20T14:39:23;25.90;99.90
19385;DHT22;9828;54.122;17.974;2022-08-20T14:44:45;25.90;99.90
19385;DHT22;9828;54.122;17.974;2022-08-20T14:50:10;25.90;99.90
19385;DHT22;9828;54.122;17.974;2022-08-20T14:55:35;25.90;99.90
19385;DHT22;9828;54.122;17.974;2022-08-20T15:00:57;25.80;99.90
19385;DHT22;9828;54.122;17.974;2022-08-20T15:06:19;25.80;99.90
19385;DHT22;9828;54.122;17.974;2022-08-20T15:11:40;25.70;99.90
19385;DHT22;9828;54.122;17.974;2022-08-20T15:17:01;25.70;99.90
19385;DHT22;9828;54.122;17.974;2022-08-20T15:22:23;25.80;99.90
19385;DHT22;9828;54.122;17.974;2022-08-20T15:27:45;25.90;99.90
19385;DHT22;9828;54.122;17.974;2022-08-20T15:33:08;26.20;99.90
19385;DHT22;9828;54.122;17.974;2022-08-20T15:38:30;26.30;99.90
19385;DHT22;9828;54.122;17.974;2022-08-20T15:43:52;26.10;99.90
19385;DHT22;9828;54.122;17.974;2022-08-20T15:49:14;25.90;99.90
19385;DHT22;9828;54.122;17.974;2022-08-20T15:54:35;25.80;99.90
19385;DHT22;9828;54.122;17.974;2022-08-20T16:06:08;25.60;99.90
19385;DHT22;9828;54.122;17.974;2022-08-20T16:11:54;25.60;99.90
19385;DHT22;9828;54.122;17.974;2022-08-20T16:17:28;25.60;99.90
19385;DHT22;9828;54.122;17.974;2022-08-20T16:22:51;25.60;99.90
19385;DHT22;9828;54.122;17.974;2022-08-20T16:28:22;25.60;99.90
19385;DHT22;9828;54.122;17.974;2022-08-20T16:45:29;25.40;99.90
19385;DHT22;9828;54.122;17.974;2022-08-20T16:50:56;25.30;99.90
19385;DHT22;9828;54.122;17.974;2022-08-20T16:56:39;25.30;99.90
19385;DHT22;9828;54.122;17.974;2022-08-20T17:02:06;25.20;99.90
19385;DHT22;9828;54.122;17.974;2022-08-20T17:07:43;25.10;99.90
19385;DHT22;9828;54.122;17.974;2022-08-20T17:13:21;25.00;99.90
19385;DHT22;9828;54.122;17.974;2022-08-20T17:18:49;24.80;99.90
19385;DHT22;9828;54.122;17.974;2022-08-20T17:24:26;24.60;99.90
19385;DHT22;9828;54.122;17.974;2022-08-20T17:29:55;24.40;99.90
19385;DHT22;9828;54.122;17.974;2022-08-20T17:35:32;24.20;99.90
19385;DHT22;9828;54.122;17.974;2022-08-20T17:41:06;24.00;99.90
19385;DHT22;9828;54.122;17.974;2022-08-20T17:46:31;23.90;99.90
19385;DHT22;9828;54.122;17.974;2022-08-20T17:51:54;23.80;99.90
19385;DHT22;9828;54.122;17.974;2022-08-20T17:57:20;23.70;99.90
19385;DHT22;9828;54.122;17.974;2022-08-20T18:02:43;23.50;99.90
19385;DHT22;9828;54.122;17.974;2022-08-20T18:19:55;23.30;99.90
19385;DHT22;9828;54.122;17.974;2022-08-20T18:31:01;23.00;99.90
19385;DHT22;9828;54.122;17.974;2022-08-20T18:36:28;23.10;99.90
19385;DHT22;9828;54.122;17.974;2022-08-20T18:42:08;22.90;99.90
19385;DHT22;9828;54.122;17.974;2022-08-20T18:53:18;22.80;99.90
19385;DHT22;9828;54.122;17.974;2022-08-20T18:58:56;22.80;99.90
19385;DHT22;9828;54.122;17.974;2022-08-20T19:04:28;22.80;99.90
19385;DHT22;9828;54.122;17.974;2022-08-20T19:15:38;22.70;99.90
19385;DHT22;9828;54.122;17.974;2022-08-20T19:21:03;22.70;99.90
19385;DHT22;9828;54.122;17.974;2022-08-20T19:26:28;22.70;99.90
19385;DHT22;9828;54.122;17.974;2022-08-20T19:31:57;22.70;99.90
19385;DHT22;9828;54.122;17.974;2022-08-20T19:37:28;22.70;99.90
19385;DHT22;9828;54.122;17.974;2022-08-20T19:42:50;22.60;99.90
19385;DHT22;9828;54.122;17.974;2022-08-20T19:48:36;22.60;99.90
19385;DHT22;9828;54.122;17.974;2022-08-20T19:53:58;22.50;99.90
19385;DHT22;9828;54.122;17.974;2022-08-20T19:59:20;22.50;99.90
19385;DHT22;9828;54.122;17.974;2022-08-20T20:04:42;22.40;99.90
19385;DHT22;9828;54.122;17.974;2022-08-20T20:10:08;22.20;99.90
19385;DHT22;9828;54.122;17.974;2022-08-20T20:15:30;22.20;99.90
19385;DHT22;9828;54.122;17.974;2022-08-20T20:20:54;21.80;99.90
19385;DHT22;9828;54.122;17.974;2022-08-20T20:26:18;21.80;99.90
19385;DHT22;9828;54.122;17.974;2022-08-20T20:31:53;21.80;99.90
19385;DHT22;9828;54.122;17.974;2022-08-20T20:42:58;21.70;99.90
19385;DHT22;9828;54.122;17.974;2022-08-20T20:48:24;21.70;99.90
19385;DHT22;9828;54.122;17.974;2022-08-20T20:53:47;21.80;99.90
19385;DHT22;9828;54.122;17.974;2022-08-20T20:59:14;21.80;99.90
19385;DHT22;9828;54.122;17.974;2022-08-20T21:04:35;21.90;99.90
19385;DHT22;9828;54.122;17.974;2022-08-20T21:09:59;21.90;99.90
19385;DHT22;9828;54.122;17.974;2022-08-20T21:15:22;21.80;99.90
19385;DHT22;9828;54.122;17.974;2022-08-20T21:20:43;21.70;99.90
19385;DHT22;9828;54.122;17.974;2022-08-20T21:26:05;21.60;99.90
19385;DHT22;9828;54.122;17.974;2022-08-20T21:31:31;21.60;99.90
19385;DHT22;9828;54.122;17.974;2022-08-20T21:36:53;21.40;99.90
19385;DHT22;9828;54.122;17.974;2022-08-20T21:42:17;21.40;99.90
19385;DHT22;9828;54.122;17.974;2022-08-20T21:47:39;21.50;99.90
19385;DHT22;9828;54.122;17.974;2022-08-20T21:53:01;21.40;99.90
19385;DHT22;9828;54.122;17.974;2022-08-20T21:58:22;21.20;99.90
19385;DHT22;9828;54.122;17.974;2022-08-20T22:03:44;21.20;99.90
19385;DHT22;9828;54.122;17.974;2022-08-20T22:09:06;21.10;99.90
19385;DHT22;9828;54.122;17.974;2022-08-20T22:14:27;21.20;99.90
19385;DHT22;9828;54.122;17.974;2022-08-20T22:19:49;21.10;99.90
19385;DHT22;9828;54.122;17.974;2022-08-20T22:25:11;21.00;99.90
19385;DHT22;9828;54.122;17.974;2022-08-20T22:30:32;21.00;99.90
19385;DHT22;9828;54.122;17.974;2022-08-20T22:41:16;20.80;99.90
19385;DHT22;9828;54.122;17.974;2022-08-20T22:46:39;20.80;99.90
19385;DHT22;9828;54.122;17.974;2022-08-20T22:52:07;20.90;99.90
19385;DHT22;9828;54.122;17.974;2022-08-20T22:57:29;20.80;99.90
19385;DHT22;9828;54.122;17.974;2022-08-20T23:02:52;20.80;99.90
19385;DHT22;9828;54.122;17.974;2022-08-20T23:08:15;20.90;99.90
19385;DHT22;9828;54.122;17.974;2022-08-20T23:13:37;20.80;99.90
19385;DHT22;9828;54.122;17.974;2022-08-20T23:18:59;20.80;99.90
19385;DHT22;9828;54.122;17.974;2022-08-20T23:24:20;20.80;99.90
19385;DHT22;9828;54.122;17.974;2022-08-20T23:29:41;20.70;99.90
19385;DHT22;9828;54.122;17.974;2022-08-20T23:35:03;20.70;99.90
19385;DHT22;9828;54.122;17.974;2022-08-20T23:40:26;20.60;99.90
19385;DHT22;9828;54.122;17.974;2022-08-20T23:51:10;20.60;99.90
19385;DHT22;9828;54.122;17.974;2022-08-20T23:56:31;20.60;99.90
